Time;durP1;ratioP1;P1;durP2;ratioP2;P2;SDS_P1;SDS_P2;PMS_P1;PMS_P2;Temp;Humidity;BMP_temperature;BMP_pressure;BME280_temperature;BME280_humidity;BME280_pressure;Samples;Min_cycle;Max_cycle;Signal;HPM_P1;HPM_P2
2022/03/28 00:01:35;;;;;;;14.87;13.23;;;;;;;7.90;81.35;101073.59;5098284;28;20291;-78
2022/03/28 00:04:01;;;;;;;15.07;13.50;;;;;;;7.93;80.95;101069.28;5096342;28;20225;-78
2022/03/28 00:06:28;;;;;;;20.33;13.83;;;;;;;8.01;80.80;101086.59;5096463;28;20841;-78
2022/03/28 00:08:54;;;;;;;14.23;12.80;;;;;;;8.09;79.72;101103.97;5095694;28;20228;-79
2022/03/28 00:11:21;;;;;;;14.73;12.70;;;;;;;8.15;79.26;101130.00;5098234;28;20743;-77
2022/03/28 00:13:49;;;;;;;15.90;12.73;;;;;;;8.18;78.19;101152.53;5102741;28;20233;-78
2022/03/28 00:16:15;;;;;;;16.10;14.27;;;;;;;8.17;78.26;101158.59;5102717;28;20210;-78
2022/03/28 00:18:42;;;;;;;21.97;14.40;;;;;;;8.06;80.02;101135.16;5088395;28;20608;-78
2022/03/28 00:21:09;;;;;;;19.03;14.70;;;;;;;7.90;80.77;101094.38;5107443;28;20214;-78
2022/03/28 00:23:35;;;;;;;17.67;14.80;;;;;;;7.89;81.78;101061.47;5107803;28;20210;-78
2022/03/28 00:26:01;;;;;;;18.90;15.40;;;;;;;7.92;82.47;101036.34;5107791;28;20207;-78
2022/03/28 00:28:28;;;;;;;18.47;15.10;;;;;;;7.83;84.04;101015.56;5105052;28;20675;-77
2022/03/28 00:30:56;;;;;;;17.43;14.93;;;;;;;7.76;84.10;100993.88;5095919;28;20213;-78
2022/03/28 00:33:22;;;;;;;15.87;14.27;;;;;;;7.82;83.97;100984.34;5095893;28;20215;-78
2022/03/28 00:35:49;;;;;;;17.33;15.03;;;;;;;7.72;84.01;101002.53;5095725;28;20260;-78
2022/03/28 00:38:18;;;;;;;17.60;15.40;;;;;;;7.68;83.67;101000.78;5095427;28;20207;-77
2022/03/28 00:40:45;;;;;;;19.43;14.93;;;;;;;7.59;83.92;100989.50;5096350;28;20654;-78
2022/03/28 00:43:12;;;;;;;22.37;15.20;;;;;;;7.51;84.78;100979.97;5096357;28;20250;-78
2022/03/28 00:45:40;;;;;;;18.50;14.50;;;;;;;7.42;85.30;100969.56;5094835;28;20207;-77
2022/03/28 00:48:10;;;;;;;17.10;14.27;;;;;;;7.37;85.23;100960.88;5096269;28;20199;-77
2022/03/28 00:50:37;;;;;;;17.00;14.33;;;;;;;7.34;86.05;100956.53;5094622;28;20223;-78
2022/03/28 00:53:06;;;;;;;18.10;14.73;;;;;;;7.36;85.22;100948.75;5094795;28;20562;-78
2022/03/28 00:55:33;;;;;;;15.93;14.33;;;;;;;7.38;86.02;100941.84;5094955;28;20227;-78
2022/03/28 00:57:59;;;;;;;19.23;14.93;;;;;;;7.36;86.08;100940.97;5095496;28;20208;-78
2022/03/28 01:00:26;;;;;;;18.60;14.50;;;;;;;7.37;86.33;100927.09;5094937;28;20252;-78
2022/03/28 01:02:52;;;;;;;15.50;13.77;;;;;;;7.41;85.58;100939.22;5094968;28;20206;-78
2022/03/28 01:05:21;;;;;;;17.30;14.57;;;;;;;7.53;85.79;100944.47;5095650;28;20196;-77
2022/03/28 01:07:47;;;;;;;15.83;14.27;;;;;;;7.48;82.86;100995.53;5102729;28;20204;-78
2022/03/28 01:10:13;;;;;;;14.07;12.57;;;;;;;7.51;81.92;101025.84;5116371;28;20226;-77
2022/03/28 01:12:42;;;;;;;16.17;13.63;;;;;;;7.63;82.69;101027.59;5118588;28;20206;-78
2022/03/28 01:15:10;;;;;;;14.03;12.23;;;;;;;7.66;82.54;101025.91;5120951;28;20229;-78
2022/03/28 01:20:25;;;;;;;17.00;13.93;;;;;;;7.60;83.33;101019.81;5121175;28;20295;-78
2022/03/28 01:22:53;;;;;;;18.83;14.77;;;;;;;7.41;84.49;100985.97;5120996;28;20611;-78
2022/03/28 01:25:22;;;;;;;17.03;15.07;;;;;;;7.20;85.55;100962.56;5118632;28;20196;-78
2022/03/28 01:27:50;;;;;;;18.33;15.10;;;;;;;7.11;85.96;100942.63;5116200;28;20217;-78
2022/03/28 01:30:16;;;;;;;19.80;15.03;;;;;;;7.07;87.61;100912.31;5114222;28;20233;-77
2022/03/28 01:32:43;;;;;;;21.13;15.23;;;;;;;7.19;87.75;100889.00;5114152;28;20749;-78
2022/03/28 01:35:09;;;;;;;15.50;13.90;;;;;;;7.29;85.49;100934.03;5114550;28;20219;-78
2022/03/28 01:37:36;;;;;;;15.23;13.53;;;;;;;7.33;82.20;101004.16;5117616;28;20216;-78
2022/03/28 01:40:04;;;;;;;17.40;12.57;;;;;;;7.36;80.98;101063.91;5102479;28;20216;-78
2022/03/28 01:42:31;;;;;;;13.80;12.47;;;;;;;7.22;80.11;101099.31;5098124;28;20210;-78
2022/03/28 01:44:57;;;;;;;14.53;12.97;;;;;;;7.18;79.28;101107.09;5094175;28;20203;-78
2022/03/28 01:47:26;;;;;;;15.47;12.43;;;;;;;7.08;79.33;101126.94;5100158;28;20215;-78
2022/03/28 01:49:53;;;;;;;13.77;12.37;;;;;;;7.04;79.35;101133.81;5100358;28;20230;-77
2022/03/28 01:52:19;;;;;;;16.23;14.40;;;;;;;6.80;80.42;101126.75;5093660;28;20208;-78
2022/03/28 01:54:46;;;;;;;18.07;15.00;;;;;;;5.77;84.94;101022.97;5093150;28;20698;-77
2022/03/28 01:57:13;;;;;;;19.10;14.07;;;;;;;5.46;86.52;100951.00;5093794;28;20814;-77
2022/03/28 01:59:40;;;;;;;18.13;14.90;;;;;;;5.19;88.45;100898.06;5094166;28;20574;-77
2022/03/28 02:02:06;;;;;;;18.87;14.93;;;;;;;5.11;88.75;100864.38;5094067;28;20210;-77
2022/03/28 02:04:33;;;;;;;16.10;14.07;;;;;;;5.32;88.75;100852.47;5097790;28;20338;-78
2022/03/28 02:06:59;;;;;;;20.90;13.90;;;;;;;5.18;87.42;100888.56;5098047;28;20210;-77
2022/03/28 02:09:26;;;;;;;17.10;14.37;;;;;;;5.15;88.59;100883.34;5097734;28;20661;-77
2022/03/28 02:11:53;;;;;;;22.70;14.43;;;;;;;5.10;89.91;100839.34;5102538;28;20238;-77
2022/03/28 02:14:21;;;;;;;24.67;15.30;;;;;;;5.10;91.41;100804.84;5101062;28;20234;-77
2022/03/28 02:16:47;;;;;;;29.20;17.07;;;;;;;5.07;92.42;100772.00;5096927;28;20202;-77
2022/03/28 02:19:13;;;;;;;21.87;16.73;;;;;;;5.07;92.99;100743.56;5097439;28;20216;-77
2022/03/28 02:21:40;;;;;;;24.23;16.10;;;;;;;5.13;93.68;100735.88;5097091;28;20208;-77
2022/03/28 02:24:07;;;;;;;23.77;16.93;;;;;;;5.10;93.73;100730.66;5096585;28;20665;-76
2022/03/28 02:26:33;;;;;;;30.00;16.37;;;;;;;5.12;93.73;100733.28;5097128;28;20668;-77
2022/03/28 02:29:00;;;;;;;22.50;15.63;;;;;;;5.08;93.21;100740.13;5102825;28;20229;-77
2022/03/28 02:31:27;;;;;;;25.90;17.40;;;;;;;5.10;93.49;100734.97;5102880;28;20853;-78
2022/03/28 02:33:54;;;;;;;23.87;17.23;;;;;;;5.15;94.29;100731.56;5102424;28;20209;-77
2022/03/28 02:36:20;;;;;;;20.10;15.80;;;;;;;5.06;93.70;100741.84;5097747;28;20258;-77
2022/03/28 02:38:47;;;;;;;24.17;15.77;;;;;;;5.10;95.09;100714.28;5096305;28;20229;-76
2022/03/28 02:41:13;;;;;;;29.33;18.53;;;;;;;5.11;95.61;100711.72;5098141;28;20674;-78
2022/03/28 02:43:40;;;;;;;42.20;19.80;;;;;;;5.20;96.05;100703.13;5102085;28;20213;-77
2022/03/28 02:46:07;;;;;;;28.53;18.03;;;;;;;5.12;95.60;100715.16;5101198;28;20228;-77
2022/03/28 02:48:35;;;;;;;29.67;17.40;;;;;;;5.13;96.10;100710.00;5099546;28;20208;-77
2022/03/28 02:51:01;;;;;;;27.73;16.93;;;;;;;5.07;95.75;100722.00;5099517;28;20201;-77
2022/03/28 02:53:28;;;;;;;30.87;18.50;;;;;;;4.98;95.97;100725.38;5098769;28;20242;-77
2022/03/28 02:55:54;;;;;;;33.17;18.73;;;;;;;4.99;96.08;100729.69;5096852;28;20233;-76
2022/03/28 02:58:21;;;;;;;30.03;18.07;;;;;;;5.03;96.44;100726.28;5096573;28;20210;-77
2022/03/28 03:00:47;;;;;;;22.60;15.97;;;;;;;5.04;95.55;100740.09;5095938;28;20282;-77
2022/03/28 03:03:14;;;;;;;27.37;16.47;;;;;;;5.06;94.77;100757.38;5095724;28;20227;-77
2022/03/28 03:05:43;;;;;;;30.80;18.30;;;;;;;5.15;94.71;100777.25;5096469;28;20210;-77
2022/03/28 03:08:09;;;;;;;26.40;16.93;;;;;;;5.16;93.85;100779.00;5096219;28;20258;-77
2022/03/28 03:10:36;;;;;;;33.07;17.43;;;;;;;5.19;94.61;100791.97;5094755;28;20249;-77
2022/03/28 03:13:02;;;;;;;31.27;18.73;;;;;;;5.20;95.10;100775.59;5094349;28;20205;-77
2022/03/28 03:15:29;;;;;;;35.73;18.60;;;;;;;5.31;95.26;100780.84;5093544;28;20225;-77
2022/03/28 03:17:55;;;;;;;26.47;16.67;;;;;;;5.48;94.76;100791.34;5094404;28;20224;-77
2022/03/28 03:20:22;;;;;;;24.87;17.37;;;;;;;5.62;93.34;100814.75;5095137;28;20233;-78
2022/03/28 03:22:49;;;;;;;20.03;14.63;;;;;;;5.69;91.53;100860.53;5095718;28;20241;-78
2022/03/28 03:25:16;;;;;;;18.17;14.67;;;;;;;5.78;89.89;100920.19;5095812;28;20206;-76
2022/03/28 03:27:43;;;;;;;17.90;14.50;;;;;;;5.86;88.34;100964.31;5095204;28;20207;-76
2022/03/28 03:30:12;;;;;;;20.70;15.00;;;;;;;5.91;87.67;101002.38;5096326;28;20234;-78
2022/03/28 03:32:39;;;;;;;18.93;14.70;;;;;;;5.96;86.79;101026.59;5100231;28;20233;-77
2022/03/28 03:35:07;;;;;;;19.30;15.00;;;;;;;5.99;85.70;101050.84;5099867;28;20231;-77
2022/03/28 03:37:33;;;;;;;21.03;15.10;;;;;;;6.05;85.37;101075.09;5099903;28;20230;-78
2022/03/28 03:40:01;;;;;;;21.40;15.33;;;;;;;6.00;85.15;101087.13;5100048;28;20235;-77
2022/03/28 03:42:27;;;;;;;24.70;17.13;;;;;;;6.05;85.07;101084.59;5099532;28;20207;-77
2022/03/28 03:44:54;;;;;;;21.17;15.20;;;;;;;6.08;84.51;101106.19;5097071;28;20254;-78
2022/03/28 03:47:21;;;;;;;21.83;15.20;;;;;;;6.11;83.71;101114.00;5094249;28;20558;-78
2022/03/28 03:49:47;;;;;;;18.30;15.20;;;;;;;6.08;84.46;101115.69;5095055;28;20635;-77
2022/03/28 03:52:14;;;;;;;18.30;15.50;;;;;;;5.99;83.89;101116.50;5095135;28;20207;-77
2022/03/28 03:54:40;;;;;;;18.70;14.10;;;;;;;5.91;83.23;101125.88;5099131;28;20249;-77
2022/03/28 03:57:08;;;;;;;19.87;14.53;;;;;;;5.78;82.86;101142.97;5095532;28;20201;-77
2022/03/28 03:59:35;;;;;;;21.80;14.40;;;;;;;5.73;82.87;101134.31;5095243;28;20272;-78
2022/03/28 04:02:01;;;;;;;20.23;15.53;;;;;;;5.72;83.47;101127.38;5095242;28;20207;-77
2022/03/28 04:04:28;;;;;;;21.17;14.43;;;;;;;5.63;83.54;101130.72;5095203;28;20214;-77
2022/03/28 04:06:54;;;;;;;21.50;14.70;;;;;;;5.54;83.50;101128.88;5095485;28;20214;-77
2022/03/28 04:09:21;;;;;;;20.73;14.47;;;;;;;5.62;83.39;101133.28;5098625;28;20735;-77
2022/03/28 04:11:48;;;;;;;15.20;13.37;;;;;;;5.69;83.12;101130.78;5100584;28;20203;-77
2022/03/28 04:14:16;;;;;;;17.57;15.67;;;;;;;5.73;83.59;101114.44;5099536;28;20273;-77
2022/03/28 04:16:43;;;;;;;26.07;17.20;;;;;;;5.63;87.03;101049.53;5099682;28;20268;-77
2022/03/28 04:19:09;;;;;;;27.90;17.97;;;;;;;5.41;88.44;100988.88;5098841;28;20234;-77
2022/03/28 04:21:36;;;;;;;32.10;18.77;;;;;;;5.25;90.80;100929.22;5099318;28;20197;-77
2022/03/28 04:24:03;;;;;;;33.30;18.43;;;;;;;5.02;91.90;100891.88;5094744;28;20212;-77
2022/03/28 04:26:30;;;;;;;28.03;18.73;;;;;;;4.85;92.66;100855.44;5093535;28;20689;-77
2022/03/28 04:28:56;;;;;;;29.17;17.57;;;;;;;4.70;93.26;100833.75;5094359;28;20224;-77
2022/03/28 04:31:24;;;;;;;25.00;16.00;;;;;;;4.68;92.96;100822.50;5094379;28;20201;-77
2022/03/28 04:33:50;;;;;;;27.23;17.47;;;;;;;4.56;92.85;100832.72;5099390;28;20221;-77
2022/03/28 04:36:17;;;;;;;26.20;16.80;;;;;;;4.63;92.41;100844.84;5099007;28;20235;-77
2022/03/28 04:38:43;;;;;;;23.40;16.47;;;;;;;4.60;92.45;100846.53;5099380;28;20212;-77
2022/03/28 04:41:10;;;;;;;26.87;15.83;;;;;;;4.55;93.23;100838.72;5099387;28;20209;-77
2022/03/28 04:43:36;;;;;;;24.03;16.63;;;;;;;4.54;93.84;100822.34;5099100;28;20208;-77
2022/03/28 04:46:02;;;;;;;26.77;16.73;;;;;;;4.42;94.73;100805.81;5097769;28;20197;-77
2022/03/28 04:48:30;;;;;;;23.53;17.20;;;;;;;4.29;96.18;100785.00;5095038;28;20276;-77
2022/03/28 04:50:57;;;;;;;29.57;17.50;;;;;;;4.21;96.38;100762.50;5092566;28;20659;-77
2022/03/28 04:53:23;;;;;;;24.77;15.90;;;;;;;4.24;96.44;100758.25;5095637;28;20225;-77
2022/03/28 04:55:50;;;;;;;21.87;15.17;;;;;;;4.26;96.59;100768.59;5099101;28;20249;-78
2022/03/28 04:58:18;;;;;;;20.67;14.37;;;;;;;4.37;95.67;100774.75;5096010;28;20278;-77
2022/03/28 05:00:44;;;;;;;23.93;15.23;;;;;;;4.54;94.65;100799.09;5093425;28;20290;-78
2022/03/28 05:03:11;;;;;;;18.17;14.60;;;;;;;4.65;93.38;100830.22;5094289;28;20213;-78
2022/03/28 05:05:38;;;;;;;23.03;15.13;;;;;;;4.60;93.51;100849.09;5094018;28;20202;-78
2022/03/28 05:08:06;;;;;;;25.50;17.20;;;;;;;4.52;93.77;100851.59;5094250;28;20208;-78
2022/03/28 05:10:32;;;;;;;27.37;15.57;;;;;;;4.52;93.17;100849.91;5094079;28;20225;-78
2022/03/28 05:12:58;;;;;;;20.30;15.70;;;;;;;4.66;93.15;100859.53;5094161;28;20208;-78
2022/03/28 05:15:25;;;;;;;21.57;15.37;;;;;;;4.77;93.05;100881.22;5093435;28;20224;-78
2022/03/28 05:17:52;;;;;;;32.93;17.40;;;;;;;4.83;93.61;100857.16;5093257;28;20243;-76
2022/03/28 05:20:19;;;;;;;26.10;15.57;;;;;;;4.92;93.09;100858.13;5092775;28;20633;-78
2022/03/28 05:22:47;;;;;;;21.27;15.33;;;;;;;5.01;91.78;100875.44;5093764;28;20232;-78
2022/03/28 05:25:13;;;;;;;20.33;14.70;;;;;;;4.98;91.04;100920.28;5093409;28;20196;-78
2022/03/28 05:27:44;;;;;;;30.90;17.30;;;;;;;5.00;90.54;100937.53;5094092;28;20679;-77
2022/03/28 05:30:11;;;;;;;29.33;16.70;;;;;;;5.09;91.18;100928.16;5093700;28;20226;-77
2022/03/28 05:32:37;;;;;;;28.40;16.40;;;;;;;5.16;90.98;100927.38;5093683;28;20261;-77
2022/03/28 05:35:06;;;;;;;50.27;20.60;;;;;;;5.21;91.63;100914.47;5093864;28;20230;-78
2022/03/28 05:37:32;;;;;;;45.90;20.63;;;;;;;5.20;92.77;100901.53;5098454;28;20242;-77
2022/03/28 05:40:01;;;;;;;40.47;20.83;;;;;;;4.91;94.48;100845.16;5100290;28;20229;-77
2022/03/28 05:42:28;;;;;;;62.27;22.07;;;;;;;4.72;96.36;100789.81;5099551;28;20206;-77
2022/03/28 05:44:54;;;;;;;56.17;21.43;;;;;;;4.72;97.54;100745.84;5091718;28;20258;-77
2022/03/28 05:47:21;;;;;;;57.13;21.83;;;;;;;4.89;97.74;100741.69;5091123;28;20210;-77
2022/03/28 05:49:47;;;;;;;36.20;19.70;;;;;;;5.10;97.25;100746.19;5097292;28;20240;-78
2022/03/28 05:52:14;;;;;;;43.47;17.93;;;;;;;4.87;96.30;100777.00;5093868;28;20195;-77
2022/03/28 05:54:40;;;;;;;57.07;19.57;;;;;;;4.68;96.16;100786.31;5093777;28;20230;-77
2022/03/28 05:57:08;;;;;;;90.47;19.70;;;;;;;4.53;96.75;100787.00;5086486;28;20240;-76
2022/03/28 05:59:35;;;;;;;76.93;18.23;;;;;;;4.24;97.35;100771.16;5091375;28;20214;-77
2022/03/28 06:02:01;;;;;;;51.60;17.90;;;;;;;4.09;98.37;100758.06;5091621;28;20193;-78
2022/03/28 06:04:28;;;;;;;84.60;19.80;;;;;;;4.02;99.35;100739.00;5099609;28;20261;-77
2022/03/28 06:06:54;;;;;;;76.23;18.47;;;;;;;4.16;99.73;100731.44;5098460;28;20298;-76
2022/03/28 06:09:20;;;;;;;75.70;19.23;;;;;;;3.96;99.86;100731.19;5098567;28;20273;-76
2022/03/28 06:11:47;;;;;;;71.53;16.50;;;;;;;3.95;100.00;100724.31;5099768;28;20228;-76
2022/03/28 06:14:15;;;;;;;60.47;16.67;;;;;;;4.02;100.00;100725.25;5099271;28;20207;-77
2022/03/28 06:16:41;;;;;;;43.27;16.33;;;;;;;4.22;100.00;100725.47;5098432;28;20228;-80
2022/03/28 06:19:08;;;;;;;38.93;16.63;;;;;;;4.42;100.00;100738.63;5098959;28;20259;-76
2022/03/28 06:21:34;;;;;;;31.30;13.80;;;;;;;4.68;99.89;100747.53;5098671;28;20196;-77
2022/03/28 06:24:01;;;;;;;21.57;13.67;;;;;;;4.57;98.45;100801.69;5098312;28;20231;-77
2022/03/28 06:26:28;;;;;;;14.40;13.10;;;;;;;4.74;97.70;100821.72;5098631;28;20259;-77
2022/03/28 06:28:54;;;;;;;12.73;11.63;;;;;;;4.95;96.85;100839.16;5098288;28;20814;-77
2022/03/28 06:31:22;;;;;;;17.20;11.80;;;;;;;5.07;95.84;100869.47;5098490;28;20280;-77
2022/03/28 06:33:49;;;;;;;18.23;13.30;;;;;;;5.12;95.20;100888.53;5098153;28;20209;-77
2022/03/28 06:36:15;;;;;;;31.63;12.53;;;;;;;5.19;95.42;100898.06;5099045;28;20718;-77
2022/03/28 06:38:41;;;;;;;25.47;13.20;;;;;;;5.26;94.96;100911.94;5100191;28;20860;-77
2022/03/28 06:41:09;;;;;;;29.07;12.90;;;;;;;5.36;94.21;100922.41;5100544;28;20206;-77
2022/03/28 06:43:35;;;;;;;12.50;11.50;;;;;;;5.44;93.30;100942.34;5096193;28;20237;-76
2022/03/28 06:46:02;;;;;;;26.40;12.07;;;;;;;5.35;92.30;100976.75;5088504;28;20198;-76
2022/03/28 06:48:29;;;;;;;39.37;13.00;;;;;;;5.42;92.58;100986.31;5089325;28;20857;-77
2022/03/28 06:50:56;;;;;;;38.37;11.00;;;;;;;5.01;92.46;100986.69;5086304;28;20202;-77
2022/03/28 06:53:22;;;;;;;12.73;11.53;;;;;;;5.15;93.09;100968.75;5088437;28;20227;-77
2022/03/28 06:55:49;;;;;;;24.00;12.30;;;;;;;5.24;93.01;100976.63;5084264;28;20873;-78
2022/03/28 06:58:16;;;;;;;18.27;12.07;;;;;;;5.33;92.62;100984.50;5087776;28;20209;-78
2022/03/28 07:00:43;;;;;;;11.27;10.27;;;;;;;5.46;91.47;101000.19;5086229;28;20225;-76
2022/03/28 07:03:09;;;;;;;16.87;10.63;;;;;;;5.50;90.68;101026.09;5083921;28;20245;-77
2022/03/28 07:05:37;;;;;;;42.27;11.40;;;;;;;5.31;91.23;101029.31;5083929;28;20640;-76
2022/03/28 07:08:03;;;;;;;10.53;9.63;;;;;;;5.42;91.31;101009.63;5085856;28;20261;-77
2022/03/28 07:10:30;;;;;;;62.07;12.73;;;;;;;5.18;91.55;101011.06;5088287;28;20217;-77
2022/03/28 07:12:56;;;;;;;20.80;10.27;;;;;;;5.33;91.92;100992.28;5081740;28;20238;-77
2022/03/28 07:15:23;;;;;;;12.23;10.50;;;;;;;5.40;91.77;101003.56;5082886;28;20203;-76
2022/03/28 07:17:54;;;;;;;51.60;10.97;;;;;;;5.37;91.91;101001.81;5085515;28;20205;-77
2022/03/28 07:20:22;;;;;;;11.17;10.07;;;;;;;5.33;91.76;100991.38;5086450;28;20847;-76
2022/03/28 07:22:50;;;;;;;13.63;10.73;;;;;;;5.44;92.12;100994.97;5082808;28;20194;-77
2022/03/28 07:25:16;;;;;;;13.00;10.23;;;;;;;5.34;91.83;100998.31;5086185;28;20898;-77
2022/03/28 07:27:43;;;;;;;12.40;11.20;;;;;;;5.44;92.18;100984.63;5084675;28;20209;-76
2022/03/28 07:30:11;;;;;;;11.50;10.40;;;;;;;5.56;92.17;100984.75;5082745;28;20269;-76
2022/03/28 07:32:39;;;;;;;43.50;11.57;;;;;;;5.59;91.68;100986.53;5088355;28;20200;-80
2022/03/28 07:35:07;;;;;;;13.13;11.83;;;;;;;5.70;91.92;100996.97;5083909;28;20244;-80
2022/03/28 07:37:34;;;;;;;27.97;12.07;;;;;;;5.48;91.48;101007.09;5078237;28;20267;-81
2022/03/28 07:40:02;;;;;;;12.23;10.97;;;;;;;5.52;91.18;101008.00;5090494;28;20245;-83
2022/03/28 07:42:30;;;;;;;17.13;10.37;;;;;;;5.51;91.16;101016.63;5084292;28;20198;-82
2022/03/28 07:44:57;;;;;;;11.70;10.50;;;;;;;5.70;90.69;101017.69;5093055;28;20208;-79
2022/03/28 07:47:25;;;;;;;56.97;11.33;;;;;;;5.82;90.43;101035.94;5087612;28;20228;-78
2022/03/28 07:49:52;;;;;;;12.93;10.10;;;;;;;5.81;90.29;101049.75;5087852;28;20629;-80
2022/03/28 07:52:19;;;;;;;13.30;10.13;;;;;;;5.89;89.78;101055.03;5094291;28;20679;-80
2022/03/28 07:54:47;;;;;;;12.23;10.07;;;;;;;5.74;89.85;101058.31;5081603;28;20585;-82
2022/03/28 07:57:16;;;;;;;40.30;11.50;;;;;;;5.56;89.68;101065.03;5088436;28;20226;-81
2022/03/28 07:59:43;;;;;;;50.90;10.70;;;;;;;5.16;90.88;101030.03;5088141;28;20223;-81
2022/03/28 08:02:10;;;;;;;12.73;11.43;;;;;;;5.13;92.33;100978.22;5087765;28;20208;-81
2022/03/28 08:04:37;;;;;;;18.83;11.63;;;;;;;5.19;92.97;100965.34;5095633;28;20204;-80
2022/03/28 08:07:05;;;;;;;12.17;10.87;;;;;;;5.47;92.60;100957.88;5092879;28;20267;-79
2022/03/28 08:09:32;;;;;;;49.97;10.53;;;;;;;5.16;91.85;100986.88;5094162;28;20216;-78
2022/03/28 08:11:59;;;;;;;15.43;10.93;;;;;;;5.18;92.35;100974.84;5095775;28;20660;-79
2022/03/28 08:14:27;;;;;;;13.57;12.00;;;;;;;5.42;92.46;100959.56;5090229;28;20205;-79
2022/03/28 08:16:55;;;;;;;15.60;11.00;;;;;;;5.21;92.81;100966.22;5088164;28;20243;-79
2022/03/28 08:19:21;;;;;;;12.17;11.00;;;;;;;5.21;92.74;100955.03;5087624;28;20209;-79
2022/03/28 08:21:48;;;;;;;12.30;10.73;;;;;;;5.46;92.28;100962.19;5090817;28;20195;-78
2022/03/28 08:24:15;;;;;;;11.67;10.33;;;;;;;5.61;92.07;100974.44;5091032;28;20202;-79
2022/03/28 08:26:41;;;;;;;11.60;10.50;;;;;;;5.86;91.08;100996.25;5089163;28;20689;-78
2022/03/28 08:29:08;;;;;;;11.13;10.03;;;;;;;6.06;90.11;101019.78;5086687;28;20230;-79
2022/03/28 08:31:36;;;;;;;11.53;10.37;;;;;;;5.87;89.53;101049.81;5088703;28;20667;-79
2022/03/28 08:34:02;;;;;;;24.90;10.17;;;;;;;5.48;90.66;101035.59;5086269;28;20616;-79
2022/03/28 08:36:29;;;;;;;14.83;10.93;;;;;;;5.06;92.84;100981.59;5087775;28;20226;-79
2022/03/28 08:38:55;;;;;;;13.80;9.20;;;;;;;4.96;93.22;100942.66;5088452;28;20278;-78
2022/03/28 08:41:26;;;;;;;10.87;9.87;;;;;;;5.29;93.09;100936.16;5091934;28;20202;-79
2022/03/28 08:43:52;;;;;;;12.00;9.60;;;;;;;5.49;91.76;100957.06;5089058;28;20254;-79
2022/03/28 08:46:19;;;;;;;11.50;10.33;;;;;;;5.70;90.49;100990.06;5093972;28;20255;-78
2022/03/28 08:48:48;;;;;;;10.27;9.27;;;;;;;5.67;90.93;100991.75;5089167;28;20645;-79
2022/03/28 08:51:16;;;;;;;11.70;10.60;;;;;;;5.45;91.61;100981.19;5091687;28;20202;-79
2022/03/28 08:53:44;;;;;;;12.27;11.20;;;;;;;5.71;91.05;100955.56;5088872;28;20212;-79
2022/03/28 08:56:11;;;;;;;12.13;11.03;;;;;;;5.67;91.37;100969.34;5087584;28;20294;-79
2022/03/28 08:58:37;;;;;;;11.73;10.63;;;;;;;5.83;91.35;100962.56;5087419;28;20738;-79
2022/03/28 09:01:05;;;;;;;13.33;11.50;;;;;;;5.88;91.33;100975.56;5091979;28;20886;-79
2022/03/28 09:03:35;;;;;;;13.47;12.07;;;;;;;6.07;90.98;100981.81;5089502;28;20587;-80
2022/03/28 09:06:31;;;;;;;13.23;11.93;;;;;;;5.84;90.37;101004.88;5092513;28;20253;-79
2022/03/28 09:09:10;;;;;;;13.03;11.83;;;;;;;5.78;91.51;100980.63;5090185;28;20690;-79
2022/03/28 09:11:37;;;;;;;12.37;11.17;;;;;;;5.91;91.46;100973.00;5089005;28;20235;-78
2022/03/28 09:14:03;;;;;;;12.40;11.27;;;;;;;5.87;91.32;100974.69;5087196;28;20191;-78
2022/03/28 09:16:34;;;;;;;14.93;13.40;;;;;;;5.52;92.76;100954.50;5088743;28;20220;-79
2022/03/28 09:19:07;;;;;;;14.97;12.80;;;;;;;5.51;93.58;100911.34;5090483;28;20706;-79
2022/03/28 09:21:36;;;;;;;13.17;11.67;;;;;;;5.85;93.29;100915.97;5089716;28;20201;-79
2022/03/28 09:24:05;;;;;;;11.87;10.83;;;;;;;6.18;91.61;100940.41;5088836;28;20207;-79
2022/03/28 09:26:32;;;;;;;13.37;11.90;;;;;;;6.44;90.19;100990.75;5088896;28;20200;-79
2022/03/28 09:29:00;;;;;;;20.30;12.37;;;;;;;6.18;89.28;101025.94;5089348;28;20624;-79
2022/03/28 09:31:30;;;;;;;17.87;12.67;;;;;;;6.22;89.72;101006.97;5089702;28;20225;-79
2022/03/28 09:34:02;;;;;;;17.67;12.50;;;;;;;6.33;89.43;101008.78;5087681;28;20211;-79
2022/03/28 09:36:42;;;;;;;14.67;12.20;;;;;;;6.39;88.85;101025.25;5087505;28;20228;-79
2022/03/28 09:39:10;;;;;;;14.03;12.43;;;;;;;6.70;87.85;101037.59;5091114;28;20232;-79
2022/03/28 09:41:37;;;;;;;14.17;12.77;;;;;;;6.88;86.83;101059.34;5089548;28;20663;-79
2022/03/28 09:44:04;;;;;;;15.23;13.20;;;;;;;6.98;86.97;101084.47;5087808;28;20211;-79
2022/03/28 09:46:33;;;;;;;13.37;11.80;;;;;;;7.07;86.16;101089.69;5087395;28;20204;-79
2022/03/28 09:49:01;;;;;;;13.97;11.90;;;;;;;7.24;85.06;101112.31;5091118;28;20758;-79
2022/03/28 09:51:29;;;;;;;15.60;12.27;;;;;;;7.31;85.01;101127.06;5090458;28;20222;-79
2022/03/28 09:53:57;;;;;;;15.67;13.33;;;;;;;7.35;83.79;101144.38;5090589;28;20188;-80
2022/03/28 09:56:24;;;;;;;14.20;12.60;;;;;;;7.09;84.78;101142.50;5092292;28;20200;-79
2022/03/28 09:58:56;;;;;;;16.73;12.50;;;;;;;7.17;84.69;101145.16;5087563;28;20229;-79
2022/03/28 10:01:25;;;;;;;18.97;12.07;;;;;;;7.30;84.55;101126.19;5086955;28;20226;-78
2022/03/28 10:03:54;;;;;;;15.00;13.33;;;;;;;7.51;83.76;101153.13;5087488;28;20204;-79
2022/03/28 10:06:21;;;;;;;14.70;12.07;;;;;;;7.63;83.33;101160.13;5089318;28;20587;-80
2022/03/28 10:08:49;;;;;;;12.73;11.37;;;;;;;7.81;82.49;101175.81;5088853;28;20223;-79
2022/03/28 10:11:18;;;;;;;16.67;11.50;;;;;;;8.05;82.73;101190.63;5088823;28;20228;-79
2022/03/28 10:13:44;;;;;;;14.60;13.03;;;;;;;8.06;82.24;101200.16;5087236;28;20202;-79
2022/03/28 10:16:11;;;;;;;14.50;13.00;;;;;;;8.29;81.32;101222.78;5087884;28;20203;-79
2022/03/28 10:18:40;;;;;;;13.87;12.57;;;;;;;8.13;80.48;101235.72;5090909;28;20211;-79
2022/03/28 10:21:09;;;;;;;16.70;13.47;;;;;;;8.32;81.14;101239.28;5090409;28;20270;-80
2022/03/28 10:23:42;;;;;;;18.13;14.63;;;;;;;8.29;81.18;101241.84;5089488;28;20229;-79
2022/03/28 10:26:10;;;;;;;14.30;12.90;;;;;;;7.96;81.17;101230.44;5092291;28;20199;-79
2022/03/28 10:28:39;;;;;;;16.47;13.60;;;;;;;7.94;81.82;101198.38;5090806;28;20261;-79
2022/03/28 10:31:17;;;;;;;15.97;14.20;;;;;;;8.13;81.96;101181.13;5089403;28;20200;-79
2022/03/28 10:33:49;;;;;;;17.20;13.70;;;;;;;8.48;81.26;101198.59;5089202;28;20290;-80
2022/03/28 10:36:24;;;;;;;14.17;12.77;;;;;;;8.71;79.25;101231.59;5090308;28;20344;-79
2022/03/28 10:38:52;;;;;;;13.30;12.00;;;;;;;8.79;79.36;101270.66;5089243;28;20249;-80
2022/03/28 10:41:19;;;;;;;15.47;12.13;;;;;;;8.70;77.92;101292.31;5089850;28;20207;-80
2022/03/28 10:43:48;;;;;;;13.03;11.70;;;;;;;8.89;78.09;101283.66;5091242;28;20195;-80
2022/03/28 10:46:16;;;;;;;13.00;11.73;;;;;;;8.76;78.34;101292.34;5090138;28;20675;-79
2022/03/28 10:48:44;;;;;;;12.47;11.27;;;;;;;8.79;77.69;101275.84;5092232;28;20326;-79
2022/03/28 10:51:12;;;;;;;12.20;11.00;;;;;;;8.96;77.90;101297.59;5091374;28;20197;-80
2022/03/28 10:53:41;;;;;;;11.43;10.23;;;;;;;9.16;76.78;101297.59;5086245;28;20212;-81
2022/03/28 10:56:13;;;;;;;11.17;9.43;;;;;;;9.30;76.40;101315.84;5089432;28;20197;-80
2022/03/28 10:58:41;;;;;;;13.80;12.47;;;;;;;9.53;75.66;101332.34;5089692;28;20442;-80
2022/03/28 11:01:24;;;;;;;13.30;11.60;;;;;;;9.36;75.22;101369.72;5088191;28;20439;-80
2022/03/28 11:03:57;;;;;;;12.10;10.77;;;;;;;9.62;74.88;101349.72;5090897;28;20203;-80
2022/03/28 11:06:46;;;;;;;11.83;10.70;;;;;;;9.38;74.21;101375.78;5090646;28;20253;-80
2022/03/28 11:09:13;;;;;;;13.87;11.90;;;;;;;9.52;74.60;101361.03;5089746;28;20594;-81
2022/03/28 11:11:58;;;;;;;12.27;10.43;;;;;;;9.43;74.41;101372.28;5090673;28;20265;-80
2022/03/28 11:14:39;;;;;;;15.57;12.27;;;;;;;9.83;73.57;101374.03;5100037;28;20215;-82
2022/03/28 11:17:18;;;;;;;12.53;11.33;;;;;;;10.07;72.32;101407.94;5082334;28;20220;-83
2022/03/28 11:19:56;;;;;;;13.43;10.83;;;;;;;10.45;72.28;101411.38;5079326;28;20234;-83
2022/03/28 11:22:47;;;;;;;11.77;10.20;;;;;;;10.68;71.01;101447.84;5078933;28;20294;-83